createdAt,value
2018-06-04T00:00:04.809Z,18.00
2018-06-04T00:01:05.523Z,19.00
2018-06-04T00:02:06.239Z,18.00
2018-06-04T00:03:06.952Z,18.00
2018-06-04T00:04:07.679Z,18.00
2018-06-04T00:05:08.391Z,18.00
2018-06-04T00:06:09.121Z,20.00
2018-06-04T00:08:25.421Z,20.00
2018-06-04T00:09:26.135Z,23.00
2018-06-04T00:10:26.863Z,17.00
2018-06-04T00:11:27.580Z,23.00
2018-06-04T00:12:28.297Z,21.00
2018-06-04T00:13:29.012Z,22.00
2018-06-04T00:14:29.727Z,23.00
2018-06-04T00:15:30.441Z,21.00
2018-06-04T00:16:31.158Z,20.00
2018-06-04T00:17:31.883Z,17.00
2018-06-04T00:18:32.597Z,18.00
2018-06-04T00:19:33.310Z,20.00
2018-06-04T00:20:34.025Z,21.00
2018-06-04T00:21:34.740Z,18.00
2018-06-04T00:22:35.455Z,21.00
2018-06-04T00:23:36.181Z,19.00
2018-06-04T00:24:36.894Z,20.00
2018-06-04T00:25:37.610Z,17.00
2018-06-04T00:26:38.335Z,21.00
2018-06-04T00:27:39.052Z,22.00
2018-06-04T00:28:39.778Z,22.00
2018-06-04T00:29:40.491Z,22.00
2018-06-04T00:30:41.206Z,22.00
2018-06-04T00:31:41.918Z,24.00
2018-06-04T00:32:42.636Z,22.00
2018-06-04T00:33:43.356Z,23.00
2018-06-04T00:34:44.083Z,21.00
2018-06-04T00:35:44.808Z,20.00
2018-06-04T00:36:45.533Z,19.00
2018-06-04T00:37:46.247Z,21.00
2018-06-04T00:38:46.961Z,20.00
2018-06-04T00:39:47.674Z,22.00
2018-06-04T00:40:48.401Z,21.00
2018-06-04T00:41:49.119Z,23.00
2018-06-04T00:42:49.830Z,21.00
2018-06-04T00:43:50.544Z,22.00
2018-06-04T00:44:51.260Z,22.00
2018-06-04T00:45:51.984Z,26.00
2018-06-04T00:46:52.698Z,22.00
2018-06-04T00:47:53.412Z,23.00
2018-06-04T00:48:54.125Z,21.00
2018-06-04T00:49:54.857Z,23.00
2018-06-04T00:50:55.578Z,23.00
2018-06-04T00:51:56.302Z,24.00
2018-06-04T00:52:57.019Z,23.00
2018-06-04T00:53:57.742Z,22.00
2018-06-04T00:54:58.455Z,22.00
2018-06-04T00:55:59.168Z,22.00
2018-06-04T00:56:59.881Z,20.00
2018-06-04T00:58:00.598Z,20.00
2018-06-04T00:59:01.324Z,22.00
2018-06-04T01:00:02.040Z,22.00
2018-06-04T01:01:02.764Z,20.00
2018-06-04T01:02:03.478Z,22.00
2018-06-04T01:03:04.190Z,21.00
2018-06-04T01:04:04.917Z,19.00
2018-06-04T01:05:05.630Z,24.00
2018-06-04T01:06:06.358Z,22.00
2018-06-04T01:07:07.084Z,25.00
2018-06-04T01:08:07.798Z,28.00
2018-06-04T01:09:08.522Z,23.00
2018-06-04T01:10:09.237Z,23.00
2018-06-04T01:11:09.962Z,24.00
2018-06-04T01:12:10.676Z,25.00
2018-06-04T01:13:11.404Z,25.00
2018-06-04T01:14:12.119Z,23.00
2018-06-04T01:15:12.837Z,24.00
2018-06-04T01:16:13.551Z,27.00
2018-06-04T01:17:14.267Z,28.00
2018-06-04T01:18:14.991Z,28.00
2018-06-04T01:19:15.706Z,24.00
2018-06-04T01:20:16.420Z,25.00
2018-06-04T01:21:17.147Z,23.00
2018-06-04T01:22:17.859Z,23.00
2018-06-04T01:23:18.586Z,28.00
2018-06-04T01:24:19.303Z,27.00
2018-06-04T01:25:20.029Z,24.00
2018-06-04T01:26:20.752Z,24.00
2018-06-04T01:27:21.466Z,27.00
2018-06-04T01:28:22.179Z,24.00
2018-06-04T01:29:22.892Z,26.00
2018-06-04T01:30:23.608Z,25.00
2018-06-04T01:31:24.332Z,24.00
2018-06-04T01:32:25.047Z,31.00
2018-06-04T01:33:25.761Z,25.00
2018-06-04T01:34:26.476Z,25.00
2018-06-04T01:35:27.190Z,28.00
2018-06-04T01:36:27.904Z,28.00
2018-06-04T01:37:28.632Z,29.00
2018-06-04T01:38:29.346Z,24.00
2018-06-04T01:39:30.072Z,27.00
2018-06-04T01:40:30.808Z,26.00
2018-06-04T01:41:31.503Z,21.00
2018-06-04T01:42:32.217Z,25.00
2018-06-04T01:43:32.931Z,27.00
2018-06-04T01:44:33.646Z,28.00
2018-06-04T01:45:34.361Z,26.00
2018-06-04T01:46:35.076Z,27.00
2018-06-04T01:47:35.792Z,28.00
2018-06-04T01:48:36.515Z,31.00
2018-06-04T01:49:37.240Z,28.00
2018-06-04T01:50:37.957Z,27.00
2018-06-04T01:51:38.681Z,25.00
2018-06-04T01:52:39.393Z,25.00
2018-06-04T01:53:40.107Z,27.00
2018-06-04T01:54:40.820Z,27.00
2018-06-04T01:55:41.534Z,28.00
2018-06-04T01:56:42.248Z,29.00
2018-06-04T01:57:42.963Z,23.00
2018-06-04T01:58:43.676Z,26.00
2018-06-04T01:59:44.388Z,29.00
2018-06-04T02:00:45.107Z,27.00
2018-06-04T02:01:45.827Z,25.00
2018-06-04T02:02:46.542Z,25.00
2018-06-04T02:03:47.254Z,27.00
2018-06-04T02:04:47.980Z,24.00
2018-06-04T02:05:48.707Z,28.00
2018-06-04T02:06:49.422Z,25.00
2018-06-04T02:07:50.137Z,24.00
2018-06-04T02:08:50.862Z,28.00
2018-06-04T02:09:51.578Z,25.00
2018-06-04T02:10:52.287Z,26.00
2018-06-04T02:11:53.001Z,27.00
2018-06-04T02:12:53.724Z,25.00
2018-06-04T02:13:54.437Z,28.00
2018-06-04T02:14:55.163Z,29.00
2018-06-04T02:15:55.881Z,29.00
2018-06-04T02:16:56.591Z,24.00
2018-06-04T02:17:57.317Z,28.00
2018-06-04T02:18:58.033Z,28.00
2018-06-04T02:19:58.747Z,28.00
2018-06-04T02:20:59.463Z,28.00
2018-06-04T02:22:00.177Z,26.00
2018-06-04T02:23:00.891Z,27.00
2018-06-04T02:24:01.615Z,22.00
2018-06-04T02:25:02.341Z,28.00
2018-06-04T02:26:03.056Z,25.00
2018-06-04T02:27:03.767Z,26.00
2018-06-04T02:28:04.480Z,26.00
2018-06-04T02:29:05.197Z,27.00
2018-06-04T02:30:05.909Z,29.00
2018-06-04T02:31:06.623Z,24.00
2018-06-04T02:32:07.336Z,25.00
2018-06-04T02:33:08.050Z,25.00
2018-06-04T02:34:08.771Z,29.00
2018-06-04T02:35:09.492Z,27.00
2018-06-04T02:36:10.209Z,25.00
2018-06-04T02:37:10.923Z,27.00
2018-06-04T02:38:11.641Z,30.00
2018-06-04T02:39:12.364Z,29.00
2018-06-04T02:40:13.075Z,24.00
2018-06-04T02:41:13.788Z,22.00
2018-06-04T02:42:14.501Z,30.00
2018-06-04T02:43:15.236Z,26.00
2018-06-04T02:44:15.952Z,29.00
2018-06-04T02:45:16.673Z,28.00
2018-06-04T02:46:17.389Z,25.00
2018-06-04T02:47:18.103Z,30.00
2018-06-04T02:48:18.817Z,24.00
2018-06-04T02:49:19.533Z,29.00
2018-06-04T02:50:20.257Z,28.00
2018-06-04T02:51:20.974Z,28.00
2018-06-04T02:52:21.688Z,26.00
2018-06-04T02:53:22.415Z,27.00
2018-06-04T02:54:23.130Z,26.00
2018-06-04T02:55:23.841Z,24.00
2018-06-04T02:56:24.569Z,27.00
2018-06-04T02:57:25.284Z,30.00
2018-06-04T02:58:26.010Z,28.00
2018-06-04T02:59:26.737Z,28.00
2018-06-04T03:00:27.450Z,28.00
2018-06-04T03:01:28.164Z,29.00
2018-06-04T03:02:28.879Z,28.00
2018-06-04T03:03:29.595Z,27.00
2018-06-04T03:04:30.307Z,28.00
2018-06-04T03:05:31.021Z,27.00
2018-06-04T03:06:31.735Z,27.00
2018-06-04T03:07:32.465Z,26.00
2018-06-04T03:08:33.189Z,29.00
2018-06-04T03:09:33.916Z,27.00
2018-06-04T03:10:34.630Z,29.00
2018-06-04T03:11:35.346Z,27.00
2018-06-04T03:12:36.062Z,28.00
2018-06-04T03:13:36.777Z,30.00
2018-06-04T03:14:37.493Z,27.00
2018-06-04T03:15:38.212Z,27.00
2018-06-04T03:16:38.939Z,27.00
2018-06-04T03:17:39.657Z,28.00
2018-06-04T03:18:40.375Z,27.00
2018-06-04T03:19:41.095Z,26.00
2018-06-04T03:20:41.820Z,27.00
2018-06-04T03:21:42.539Z,27.00
2018-06-04T03:22:43.253Z,28.00
2018-06-04T03:23:43.970Z,27.00
2018-06-04T03:24:44.689Z,26.00
2018-06-04T03:25:45.413Z,27.00
2018-06-04T03:26:46.130Z,22.00
2018-06-04T03:27:46.848Z,25.00
2018-06-04T03:28:47.565Z,25.00
2018-06-04T03:29:48.284Z,28.00
2018-06-04T03:30:49.001Z,24.00
2018-06-04T03:31:49.723Z,24.00
2018-06-04T03:32:50.448Z,27.00
2018-06-04T03:33:51.176Z,26.00
2018-06-04T03:34:51.951Z,26.00
2018-06-04T03:35:52.608Z,24.00
2018-06-04T03:36:53.344Z,29.00
2018-06-04T03:37:54.067Z,26.00
2018-06-04T03:38:54.784Z,28.00
2018-06-04T03:39:55.501Z,27.00
2018-06-04T03:40:56.218Z,29.00
2018-06-04T03:41:56.935Z,28.00
2018-06-04T03:42:57.662Z,29.00
2018-06-04T03:43:58.379Z,29.00
2018-06-04T03:44:59.094Z,29.00
2018-06-04T03:45:59.824Z,28.00
2018-06-04T03:47:00.539Z,27.00
2018-06-04T03:48:01.270Z,28.00
2018-06-04T03:49:02.000Z,28.00
2018-06-04T03:50:02.712Z,27.00
2018-06-04T03:51:03.441Z,30.00
2018-06-04T03:52:04.228Z,27.00
2018-06-04T03:53:04.876Z,29.00
2018-06-04T03:54:05.600Z,31.00
2018-06-04T03:55:06.312Z,31.00
2018-06-04T03:56:07.027Z,31.00
2018-06-04T03:57:07.744Z,31.00
2018-06-04T03:58:08.471Z,32.00
2018-06-04T03:59:09.190Z,30.00
2018-06-04T04:00:09.920Z,30.00
2018-06-04T04:01:10.640Z,31.00
2018-06-04T04:02:11.368Z,29.00
2018-06-04T04:03:12.085Z,30.00
2018-06-04T04:04:12.816Z,29.00
2018-06-04T04:05:13.545Z,29.00
2018-06-04T04:06:14.264Z,31.00
2018-06-04T04:07:14.997Z,31.00
2018-06-04T04:08:15.765Z,30.00
2018-06-04T04:09:16.439Z,29.00
2018-06-04T04:10:17.162Z,29.00
2018-06-04T04:11:17.880Z,28.00
2018-06-04T04:12:18.610Z,33.00
2018-06-04T04:13:19.329Z,27.00
2018-06-04T04:14:20.047Z,31.00
2018-06-04T04:15:20.765Z,29.00
2018-06-04T04:16:21.483Z,33.00
2018-06-04T04:17:22.202Z,27.00
2018-06-04T04:18:22.923Z,27.00
2018-06-04T04:19:23.678Z,32.00
2018-06-04T04:20:24.356Z,25.00
2018-06-04T04:21:25.087Z,28.00
2018-06-04T04:22:25.805Z,31.00
2018-06-04T04:23:26.521Z,32.00
2018-06-04T04:24:27.248Z,33.00
2018-06-04T04:25:27.966Z,30.00
2018-06-04T04:26:28.684Z,34.00
2018-06-04T04:27:29.403Z,27.00
2018-06-04T04:28:30.123Z,31.00
2018-06-04T04:29:30.852Z,32.00
2018-06-04T04:30:31.571Z,29.00
2018-06-04T04:31:32.289Z,28.00
2018-06-04T04:32:33.022Z,30.00
2018-06-04T04:33:33.741Z,30.00
2018-06-04T04:34:34.459Z,31.00
2018-06-04T04:35:35.178Z,28.00
2018-06-04T04:36:35.898Z,30.00
2018-06-04T04:37:36.616Z,34.00
2018-06-04T04:38:37.335Z,29.00
2018-06-04T04:39:38.052Z,31.00
2018-06-04T04:40:38.771Z,30.00
2018-06-04T04:41:39.489Z,31.00
2018-06-04T04:42:40.219Z,31.00
2018-06-04T04:43:40.939Z,31.00
2018-06-04T04:44:41.677Z,30.00
2018-06-04T04:45:42.389Z,31.00
2018-06-04T04:46:43.128Z,32.00
2018-06-04T04:47:43.826Z,31.00
2018-06-04T04:48:44.545Z,30.00
2018-06-04T04:49:45.275Z,31.00
2018-06-04T04:50:45.993Z,29.00
2018-06-04T04:51:46.724Z,31.00
2018-06-04T04:52:47.444Z,30.00
2018-06-04T04:53:48.159Z,28.00
2018-06-04T04:54:48.876Z,30.00
2018-06-04T04:55:49.602Z,28.00
2018-06-04T04:56:50.316Z,30.00
2018-06-04T04:57:51.039Z,30.00
2018-06-04T04:58:51.753Z,28.00
2018-06-04T04:59:52.473Z,29.00
2018-06-04T05:00:53.192Z,30.00
2018-06-04T05:01:53.909Z,33.00
2018-06-04T05:02:54.631Z,31.00
2018-06-04T05:03:55.358Z,31.00
2018-06-04T05:04:56.078Z,34.00
2018-06-04T05:05:56.810Z,30.00
2018-06-04T05:06:57.534Z,31.00
2018-06-04T05:07:58.256Z,31.00
2018-06-04T05:08:58.976Z,31.00
2018-06-04T05:09:59.693Z,30.00
2018-06-04T05:11:00.412Z,33.00
2018-06-04T05:12:01.144Z,38.00
2018-06-04T05:13:01.863Z,32.00
2018-06-04T05:14:02.583Z,31.00
2018-06-04T05:15:03.315Z,32.00
2018-06-04T05:16:04.036Z,36.00
2018-06-04T05:17:04.756Z,33.00
2018-06-04T05:18:05.474Z,30.00
2018-06-04T05:19:06.191Z,31.00
2018-06-04T05:20:06.909Z,30.00
2018-06-04T05:21:07.631Z,33.00
2018-06-04T05:22:08.360Z,31.00
2018-06-04T05:23:09.079Z,33.00
2018-06-04T05:24:09.811Z,30.00
2018-06-04T05:25:10.531Z,33.00
2018-06-04T05:26:11.251Z,32.00
2018-06-04T05:27:11.983Z,36.00
2018-06-04T05:28:12.703Z,33.00
2018-06-04T05:29:13.422Z,32.00
2018-06-04T05:30:14.140Z,31.00
2018-06-04T05:31:14.860Z,36.00
2018-06-04T05:32:15.582Z,30.00
2018-06-04T05:33:16.302Z,32.00
2018-06-04T05:34:17.025Z,31.00
2018-06-04T05:35:17.746Z,35.00
2018-06-04T05:36:18.478Z,32.00
2018-06-04T05:37:19.199Z,33.00
2018-06-04T05:38:19.921Z,37.00
2018-06-04T05:39:20.642Z,34.00
2018-06-04T05:40:21.364Z,30.00
2018-06-04T05:41:22.083Z,34.00
2018-06-04T05:42:22.821Z,32.00
2018-06-04T05:43:23.524Z,30.00
2018-06-04T05:44:24.248Z,31.00
2018-06-04T05:45:24.979Z,35.00
2018-06-04T05:46:25.699Z,32.00
2018-06-04T05:47:26.432Z,31.00
2018-06-04T05:48:27.166Z,30.00
2018-06-04T05:49:27.888Z,31.00
2018-06-04T05:50:28.620Z,31.00
2018-06-04T05:51:29.339Z,31.00
2018-06-04T05:52:30.061Z,30.00
2018-06-04T05:53:30.783Z,27.00
2018-06-04T05:54:31.505Z,28.00
2018-06-04T05:55:32.224Z,26.00
2018-06-04T05:56:32.944Z,30.00
2018-06-04T05:57:33.667Z,30.00
2018-06-04T05:58:34.385Z,27.00
2018-06-04T05:59:35.108Z,28.00
2018-06-04T06:00:35.828Z,31.00
2018-06-04T06:01:36.550Z,26.00
2018-06-04T06:02:37.272Z,66.00
2018-06-04T06:03:37.994Z,58.00
2018-06-04T06:04:38.714Z,43.00
2018-06-04T06:05:39.437Z,37.00
2018-06-04T06:06:40.159Z,34.00
2018-06-04T06:07:40.880Z,31.00
2018-06-04T06:08:41.603Z,32.00
2018-06-04T06:09:42.324Z,31.00
2018-06-04T06:10:43.044Z,31.00
2018-06-04T06:11:43.777Z,32.00
2018-06-04T06:12:44.499Z,33.00
2018-06-04T06:13:45.227Z,35.00
2018-06-04T06:14:45.946Z,31.00
2018-06-04T06:15:46.667Z,29.00
2018-06-04T06:16:47.390Z,27.00
2018-06-04T06:17:48.109Z,29.00
2018-06-04T06:18:48.831Z,34.00
2018-06-04T06:19:49.616Z,29.00
2018-06-04T06:20:50.279Z,28.00
2018-06-04T06:21:51.011Z,31.00
2018-06-04T06:22:51.732Z,28.00
2018-06-04T06:23:52.457Z,28.00
2018-06-04T06:24:53.183Z,33.00
2018-06-04T06:25:53.899Z,28.00
2018-06-04T06:26:54.620Z,27.00
2018-06-04T06:27:55.341Z,26.00
2018-06-04T06:28:56.074Z,29.00
2018-06-04T06:29:56.795Z,30.00
2018-06-04T06:30:57.519Z,29.00
2018-06-04T06:31:58.239Z,29.00
2018-06-04T06:32:58.960Z,32.00
2018-06-04T06:33:59.681Z,26.00
2018-06-04T06:35:00.404Z,29.00
2018-06-04T06:36:01.126Z,31.00
2018-06-04T06:37:01.850Z,30.00
2018-06-04T06:38:02.573Z,28.00
2018-06-04T06:39:03.296Z,25.00
2018-06-04T06:40:04.017Z,28.00
2018-06-04T06:41:04.739Z,27.00
2018-06-04T06:42:05.461Z,27.00
2018-06-04T06:43:06.182Z,27.00
2018-06-04T06:44:06.905Z,30.00
2018-06-04T06:45:07.628Z,26.00
2018-06-04T06:46:08.351Z,29.00
2018-06-04T06:47:09.075Z,30.00
2018-06-04T06:48:09.799Z,30.00
2018-06-04T06:49:10.524Z,27.00
2018-06-04T06:50:11.282Z,27.00
2018-06-04T06:51:11.976Z,34.00
2018-06-04T06:52:12.701Z,30.00
2018-06-04T06:53:13.427Z,36.00
2018-06-04T06:54:14.151Z,28.00
2018-06-04T06:55:14.877Z,29.00
2018-06-04T06:56:15.606Z,29.00
2018-06-04T06:57:16.328Z,28.00
2018-06-04T06:58:17.050Z,31.00
2018-06-04T06:59:17.775Z,31.00
2018-06-04T07:00:18.500Z,28.00
2018-06-04T07:01:19.221Z,30.00
2018-06-04T07:02:19.947Z,32.00
2018-06-04T07:03:20.669Z,31.00
2018-06-04T07:04:21.404Z,27.00
2018-06-04T07:05:22.141Z,30.00
2018-06-04T07:06:22.871Z,32.00
2018-06-04T07:07:23.604Z,31.00
2018-06-04T07:08:24.331Z,30.00
2018-06-04T07:09:25.058Z,29.00
2018-06-04T07:10:25.783Z,32.00
2018-06-04T07:11:26.503Z,32.00
2018-06-04T07:12:27.227Z,30.00
2018-06-04T07:13:27.951Z,26.00
2018-06-04T07:14:28.797Z,27.00
2018-06-04T07:15:29.412Z,25.00
2018-06-04T07:16:30.140Z,28.00
2018-06-04T07:17:30.877Z,29.00
2018-06-04T07:18:31.624Z,30.00
2018-06-04T07:19:32.334Z,29.00
2018-06-04T07:20:33.066Z,28.00
2018-06-04T07:21:33.794Z,32.00
2018-06-04T07:22:34.519Z,28.00
2018-06-04T07:23:35.248Z,27.00
2018-06-04T07:24:35.970Z,27.00
2018-06-04T07:25:36.697Z,29.00
2018-06-04T07:26:37.433Z,29.00
2018-06-04T07:27:38.158Z,25.00
2018-06-04T07:28:38.888Z,35.00
2018-06-04T07:29:39.621Z,27.00
2018-06-04T07:30:40.347Z,29.00
2018-06-04T07:31:41.072Z,28.00
2018-06-04T07:32:41.799Z,27.00
2018-06-04T07:33:42.538Z,28.00
2018-06-04T07:34:43.263Z,28.00
2018-06-04T07:35:43.992Z,26.00
2018-06-04T07:36:44.731Z,31.00
2018-06-04T07:37:45.462Z,28.00
2018-06-04T07:38:46.184Z,25.00
2018-06-04T07:39:46.914Z,27.00
2018-06-04T07:40:47.641Z,27.00
2018-06-04T07:41:48.369Z,25.00
2018-06-04T07:42:49.098Z,28.00
2018-06-04T07:43:49.841Z,28.00
2018-06-04T07:44:50.569Z,25.00
2018-06-04T07:45:51.301Z,25.00
2018-06-04T07:46:52.040Z,31.00
2018-06-04T07:47:52.767Z,29.00
2018-06-04T07:48:53.495Z,29.00
2018-06-04T07:49:54.297Z,29.00
2018-06-04T07:50:54.954Z,26.00
2018-06-04T07:51:55.681Z,29.00
2018-06-04T07:52:56.410Z,27.00
2018-06-04T07:53:57.149Z,29.00
2018-06-04T07:54:57.892Z,29.00
2018-06-04T07:55:58.621Z,28.00
2018-06-04T07:56:59.350Z,27.00
2018-06-04T07:58:00.082Z,28.00
2018-06-04T07:59:00.812Z,26.00
2018-06-04T08:00:01.544Z,28.00
2018-06-04T08:01:02.274Z,28.00
2018-06-04T08:02:03.017Z,27.00
2018-06-04T08:03:03.747Z,29.00
2018-06-04T08:04:04.477Z,26.00
2018-06-04T08:05:05.209Z,30.00
2018-06-04T08:06:05.941Z,25.00
2018-06-04T08:07:06.673Z,28.00
2018-06-04T08:08:07.403Z,24.00
2018-06-04T08:09:08.136Z,27.00
2018-06-04T08:10:08.945Z,27.00
2018-06-04T08:11:09.599Z,26.00
2018-06-04T08:12:10.334Z,24.00
2018-06-04T08:13:11.066Z,26.00
2018-06-04T08:14:11.800Z,28.00
2018-06-04T08:15:12.547Z,27.00
2018-06-04T08:16:13.285Z,28.00
2018-06-04T08:17:14.015Z,25.00
2018-06-04T08:18:14.748Z,26.00
2018-06-04T08:19:15.483Z,25.00
2018-06-04T08:20:16.217Z,28.00
2018-06-04T08:21:16.951Z,28.00
2018-06-04T08:22:17.697Z,25.00
2018-06-04T08:23:18.433Z,26.00
2018-06-04T08:24:19.169Z,23.00
2018-06-04T08:25:19.905Z,28.00
2018-06-04T08:26:20.639Z,25.00
2018-06-04T08:27:21.372Z,23.00
2018-06-04T08:28:22.108Z,26.00
2018-06-04T08:29:22.915Z,24.00
2018-06-04T08:30:23.602Z,27.00
2018-06-04T08:31:24.339Z,23.00
2018-06-04T08:32:25.090Z,23.00
2018-06-04T08:33:25.827Z,25.00
2018-06-04T08:34:26.560Z,24.00
2018-06-04T08:35:27.294Z,29.00
2018-06-04T08:36:28.033Z,27.00
2018-06-04T08:37:28.772Z,27.00
2018-06-04T08:38:29.571Z,27.00
2018-06-04T08:39:30.255Z,22.00
2018-06-04T08:40:30.993Z,23.00
2018-06-04T08:41:31.730Z,24.00
2018-06-04T08:42:32.471Z,21.00
2018-06-04T08:43:33.214Z,21.00
2018-06-04T08:44:33.956Z,25.00
2018-06-04T08:45:34.709Z,20.00
2018-06-04T08:46:35.447Z,26.00
2018-06-04T08:47:36.192Z,22.00
2018-06-04T08:48:36.932Z,25.00
2018-06-04T08:49:37.671Z,25.00
2018-06-04T08:50:38.414Z,28.00
2018-06-04T08:51:39.163Z,27.00
2018-06-04T08:52:39.897Z,26.00
2018-06-04T08:53:40.637Z,26.00
2018-06-04T08:54:41.375Z,24.00
2018-06-04T08:55:42.113Z,26.00
2018-06-04T08:56:42.868Z,27.00
2018-06-04T08:57:43.613Z,22.00
2018-06-04T08:58:44.354Z,23.00
2018-06-04T08:59:45.102Z,20.00
2018-06-04T09:00:45.844Z,15.00
2018-06-04T09:01:46.630Z,16.00
2018-06-04T09:02:47.347Z,16.00
2018-06-04T09:03:48.095Z,15.00
2018-06-04T09:04:48.838Z,19.00
2018-06-04T09:05:49.581Z,18.00
2018-06-04T09:06:50.323Z,21.00
2018-06-04T09:07:51.065Z,19.00
2018-06-04T09:08:51.817Z,18.00
2018-06-04T09:09:52.613Z,19.00
2018-06-04T09:10:53.301Z,17.00
2018-06-04T09:11:54.054Z,18.00
2018-06-04T09:12:54.805Z,17.00
2018-06-04T09:13:55.550Z,17.00
2018-06-04T09:14:56.293Z,18.00
2018-06-04T09:15:57.036Z,17.00
2018-06-04T09:16:57.791Z,18.00
2018-06-04T09:17:58.546Z,21.00
2018-06-04T09:18:59.288Z,22.00
2018-06-04T09:20:00.033Z,18.00
2018-06-04T09:21:00.777Z,18.00
2018-06-04T09:22:01.559Z,17.00
2018-06-04T09:23:02.275Z,17.00
2018-06-04T09:24:03.020Z,16.00
2018-06-04T09:25:04.406Z,16.00
2018-06-04T09:26:04.502Z,16.00
2018-06-04T09:27:05.247Z,16.00
2018-06-04T09:28:06.004Z,15.00
2018-06-04T09:29:06.746Z,18.00
2018-06-04T09:30:07.488Z,17.00
2018-06-04T09:31:08.237Z,22.00
2018-06-04T09:32:08.991Z,19.00
2018-06-04T09:33:09.734Z,19.00
2018-06-04T09:34:10.473Z,17.00
2018-06-04T09:35:11.214Z,18.00
2018-06-04T09:36:11.968Z,16.00
2018-06-04T09:37:12.707Z,18.00
2018-06-04T09:38:13.460Z,18.00
2018-06-04T09:39:14.205Z,16.00
2018-06-04T09:40:14.941Z,16.00
2018-06-04T09:41:15.694Z,17.00
2018-06-04T09:42:16.447Z,16.00
2018-06-04T09:43:17.190Z,18.00
2018-06-04T09:44:17.927Z,19.00
2018-06-04T09:45:18.670Z,14.00
2018-06-04T09:46:19.417Z,14.00
2018-06-04T09:47:20.161Z,15.00
2018-06-04T09:48:20.907Z,14.00
2018-06-04T09:49:21.657Z,16.00
2018-06-04T09:50:22.399Z,12.00
2018-06-04T09:51:23.144Z,16.00
2018-06-04T09:52:23.889Z,17.00
2018-06-04T09:53:24.646Z,14.00
2018-06-04T09:54:25.394Z,16.00
2018-06-04T09:55:26.149Z,14.00
2018-06-04T09:56:26.901Z,14.00
2018-06-04T09:57:27.652Z,16.00
2018-06-04T09:58:28.394Z,17.00
2018-06-04T09:59:29.134Z,16.00
2018-06-04T10:00:29.874Z,17.00
2018-06-04T10:01:30.617Z,15.00
2018-06-04T10:02:31.359Z,18.00
2018-06-04T10:03:32.114Z,16.00
2018-06-04T10:04:32.867Z,15.00
2018-06-04T10:05:33.605Z,25.00
2018-06-04T10:06:34.371Z,18.00
2018-06-04T10:07:35.124Z,21.00
2018-06-04T10:08:35.897Z,21.00
2018-06-04T10:09:36.604Z,19.00
2018-06-04T10:10:37.345Z,20.00
2018-06-04T10:11:38.085Z,21.00
2018-06-04T10:12:38.825Z,19.00
2018-06-04T10:13:39.567Z,22.00
2018-06-04T10:14:40.309Z,20.00
2018-06-04T10:15:41.063Z,20.00
2018-06-04T10:16:41.806Z,21.00
2018-06-04T10:17:42.547Z,20.00
2018-06-04T10:18:43.288Z,19.00
2018-06-04T10:19:44.044Z,22.00
2018-06-04T10:20:44.787Z,20.00
2018-06-04T10:21:45.520Z,17.00
2018-06-04T10:22:46.257Z,21.00
2018-06-04T10:23:47.009Z,21.00
2018-06-04T10:24:47.759Z,22.00
2018-06-04T10:25:48.510Z,20.00
2018-06-04T10:26:49.261Z,22.00
2018-06-04T10:27:50.007Z,24.00
2018-06-04T10:28:50.763Z,26.00
2018-06-04T10:29:51.498Z,23.00
2018-06-04T10:30:52.240Z,28.00
2018-06-04T10:31:52.977Z,24.00
2018-06-04T10:32:53.733Z,24.00
2018-06-04T10:33:54.473Z,23.00
2018-06-04T10:34:55.224Z,22.00
2018-06-04T10:35:55.966Z,24.00
2018-06-04T10:36:56.711Z,22.00
2018-06-04T10:37:57.450Z,23.00
2018-06-04T10:38:58.202Z,22.00
2018-06-04T10:39:58.952Z,23.00
2018-06-04T10:40:59.696Z,23.00
2018-06-04T10:42:00.443Z,25.00
2018-06-04T10:43:01.185Z,24.00
2018-06-04T10:44:01.927Z,26.00
2018-06-04T10:45:02.674Z,25.00
2018-06-04T10:46:03.408Z,22.00
2018-06-04T10:47:04.149Z,23.00
2018-06-04T10:48:04.888Z,23.00
2018-06-04T10:49:05.633Z,24.00
2018-06-04T10:50:06.383Z,27.00
2018-06-04T10:51:07.126Z,25.00
2018-06-04T10:52:07.865Z,23.00
2018-06-04T10:53:08.606Z,25.00
2018-06-04T10:54:09.360Z,23.00
2018-06-04T10:55:10.099Z,23.00
2018-06-04T10:56:10.837Z,22.00
2018-06-04T10:57:11.576Z,23.00
2018-06-04T10:58:12.330Z,23.00
2018-06-04T10:59:13.087Z,23.00
2018-06-04T11:00:13.829Z,23.00
2018-06-04T11:01:14.571Z,29.00
2018-06-04T11:02:15.309Z,25.00
2018-06-04T11:03:16.052Z,25.00
2018-06-04T11:04:16.791Z,22.00
2018-06-04T11:05:17.533Z,23.00
2018-06-04T11:06:18.273Z,25.00
2018-06-04T11:07:19.029Z,21.00
2018-06-04T11:08:19.768Z,24.00
2018-06-04T11:09:20.509Z,21.00
2018-06-04T11:10:21.248Z,24.00
2018-06-04T11:11:21.989Z,24.00
2018-06-04T11:12:22.740Z,23.00
2018-06-04T11:13:23.479Z,24.00
2018-06-04T11:14:24.238Z,22.00
2018-06-04T11:15:24.976Z,25.00
2018-06-04T11:16:25.719Z,21.00
2018-06-04T11:17:26.460Z,22.00
2018-06-04T11:18:27.199Z,20.00
2018-06-04T11:19:27.958Z,23.00
2018-06-04T11:20:28.703Z,23.00
2018-06-04T11:21:29.445Z,20.00
2018-06-04T11:22:30.185Z,19.00
2018-06-04T11:23:30.937Z,21.00
2018-06-04T11:24:31.682Z,22.00
2018-06-04T11:25:32.424Z,18.00
2018-06-04T11:26:33.165Z,22.00
2018-06-04T11:27:33.906Z,16.00
2018-06-04T11:28:34.645Z,20.00
2018-06-04T11:29:35.390Z,21.00
2018-06-04T11:30:36.128Z,18.00
2018-06-04T11:31:36.868Z,17.00
2018-06-04T11:32:37.608Z,17.00
2018-06-04T11:33:38.349Z,24.00
2018-06-04T11:34:39.090Z,22.00
2018-06-04T11:35:39.835Z,21.00
2018-06-04T11:36:40.570Z,21.00
2018-06-04T11:37:41.307Z,19.00
2018-06-04T11:38:42.047Z,20.00
2018-06-04T11:39:42.790Z,22.00
2018-06-04T11:40:43.527Z,21.00
2018-06-04T11:41:44.277Z,18.00
2018-06-04T11:42:45.032Z,21.00
2018-06-04T11:43:45.771Z,25.00
2018-06-04T11:44:46.512Z,23.00
2018-06-04T11:45:47.255Z,20.00
2018-06-04T11:46:47.994Z,20.00
2018-06-04T11:47:48.733Z,21.00
2018-06-04T11:48:49.474Z,22.00
2018-06-04T11:49:50.218Z,24.00
2018-06-04T11:50:50.968Z,19.00
2018-06-04T11:51:51.708Z,18.00
2018-06-04T11:52:52.453Z,23.00
2018-06-04T11:53:53.202Z,18.00
2018-06-04T11:54:53.943Z,21.00
2018-06-04T11:55:54.683Z,20.00
2018-06-04T11:56:55.434Z,20.00
2018-06-04T11:57:56.180Z,25.00
2018-06-04T11:58:56.926Z,24.00
2018-06-04T11:59:57.664Z,22.00
2018-06-04T12:00:58.415Z,23.00
2018-06-04T12:01:59.157Z,24.00
2018-06-04T12:02:59.909Z,23.00
2018-06-04T12:04:00.649Z,23.00
2018-06-04T12:05:01.390Z,23.00
2018-06-04T12:06:02.131Z,23.00
2018-06-04T12:07:02.871Z,24.00
2018-06-04T12:08:03.613Z,22.00
2018-06-04T12:09:04.351Z,20.00
2018-06-04T12:10:05.105Z,21.00
2018-06-04T12:11:05.856Z,22.00
2018-06-04T12:12:06.605Z,21.00
2018-06-04T12:13:07.349Z,20.00
2018-06-04T12:14:08.087Z,18.00
2018-06-04T12:15:08.830Z,20.00
2018-06-04T12:16:09.573Z,19.00
2018-06-04T12:17:10.312Z,22.00
2018-06-04T12:18:11.051Z,17.00
2018-06-04T12:19:11.788Z,18.00
2018-06-04T12:20:12.527Z,16.00
2018-06-04T12:21:13.279Z,18.00
2018-06-04T12:22:14.017Z,19.00
2018-06-04T12:23:14.760Z,17.00
2018-06-04T12:24:15.495Z,18.00
2018-06-04T12:25:16.249Z,19.00
2018-06-04T12:26:16.985Z,16.00
2018-06-04T12:27:17.722Z,15.00
2018-06-04T12:28:18.460Z,17.00
2018-06-04T12:29:19.201Z,16.00
2018-06-04T12:30:19.949Z,15.00
2018-06-04T12:31:20.706Z,18.00
2018-06-04T12:32:21.427Z,15.00
2018-06-04T12:33:22.169Z,14.00
2018-06-04T12:34:22.919Z,17.00
2018-06-04T12:35:23.656Z,16.00
2018-06-04T12:36:24.405Z,16.00
2018-06-04T12:37:25.144Z,17.00
2018-06-04T12:38:25.895Z,19.00
2018-06-04T12:39:26.630Z,15.00
2018-06-04T12:40:27.371Z,14.00
2018-06-04T12:41:28.107Z,18.00
2018-06-04T12:42:28.846Z,17.00
2018-06-04T12:43:29.582Z,17.00
2018-06-04T12:44:30.323Z,18.00
2018-06-04T12:45:31.066Z,18.00
2018-06-04T12:46:31.812Z,15.00
2018-06-04T12:47:32.550Z,19.00
2018-06-04T12:48:33.298Z,17.00
2018-06-04T12:49:34.033Z,14.00
2018-06-04T12:50:34.774Z,18.00
2018-06-04T12:51:35.510Z,18.00
2018-06-04T12:52:36.249Z,16.00
2018-06-04T12:53:36.985Z,14.00
2018-06-04T12:54:37.725Z,13.00
2018-06-04T12:55:38.465Z,12.00
2018-06-04T12:56:39.198Z,14.00
2018-06-04T12:57:39.934Z,16.00
2018-06-04T12:58:40.683Z,13.00
2018-06-04T12:59:41.421Z,13.00
2018-06-04T13:00:42.159Z,16.00
2018-06-04T13:01:42.899Z,16.00
2018-06-04T13:02:43.643Z,14.00